Archer City, Texas
Current Conditions -  °F | °C
As of 8:35 AM on Monday 20 Oct 2014 (Local Time) from KCWC Reporting Station
Clear Clear  
Wind Chill: 58°   Ceiling: Unl
Heat Index: 58°   Visibility: 7mi
Dew Point: 57°   Wind: 3mph
Humidity: 96%   Direction: 180°S
Pressure: 30.09"   Gusts: NA
Location:  33.6°N, 98.63°W
Report Text: KCWC 201335Z AUTO 18003KT 7SM CLR 15/14 A3009 RMK AO2 T01470140
Loading
Personal Weather Stations






























Interactive Weather Map
Tropical Storm Tracking
New forecast layout! Learn more

10-Day Weather Forecast

Advertisements
Track Severe Weather on mobile